createdAt,value
2019-04-26T00:00:40.740Z,0.00
2019-04-26T00:01:40.732Z,0.00
2019-04-26T00:02:40.717Z,0.00
2019-04-26T00:03:40.721Z,0.00
2019-04-26T00:04:40.696Z,0.00
2019-04-26T00:05:40.681Z,0.00
2019-04-26T00:06:45.715Z,0.00
2019-04-26T00:07:40.660Z,0.00
2019-04-26T00:08:40.669Z,0.00
2019-04-26T00:09:40.643Z,0.00
2019-04-26T00:10:40.625Z,0.00
2019-04-26T00:11:40.613Z,0.00
2019-04-26T00:12:40.602Z,0.00
2019-04-26T00:13:40.600Z,0.00
2019-04-26T00:14:40.577Z,0.00
2019-04-26T00:15:40.573Z,0.00
2019-04-26T00:16:40.574Z,0.00
2019-04-26T00:17:45.569Z,0.00
2019-04-26T00:18:40.550Z,0.00
2019-04-26T00:19:40.530Z,0.00
2019-04-26T00:20:40.518Z,0.00
2019-04-26T00:21:40.501Z,0.00
2019-04-26T00:22:40.511Z,0.00
2019-04-26T00:23:40.497Z,0.00
2019-04-26T00:24:40.473Z,0.00
2019-04-26T00:25:40.457Z,0.00
2019-04-26T00:26:40.453Z,0.00
2019-04-26T00:27:40.436Z,0.00
2019-04-26T00:28:45.473Z,0.00
2019-04-26T00:29:40.410Z,0.00
2019-04-26T00:30:40.407Z,0.00
2019-04-26T00:31:40.386Z,0.00
2019-04-26T00:32:40.379Z,0.00
2019-04-26T00:33:40.405Z,0.00
2019-04-26T00:34:40.372Z,0.00
2019-04-26T00:35:47.315Z,0.00
2019-04-26T00:36:41.331Z,0.00
2019-04-26T00:37:40.323Z,0.00
2019-04-26T00:38:40.312Z,0.00
2019-04-26T00:39:45.342Z,0.00
2019-04-26T00:40:40.310Z,0.00
2019-04-26T00:41:40.275Z,0.00
2019-04-26T00:42:40.262Z,0.00
2019-04-26T00:43:40.266Z,0.00
2019-04-26T00:44:40.257Z,0.00
2019-04-26T00:45:40.231Z,0.00
2019-04-26T00:46:40.218Z,0.00
2019-04-26T00:47:40.211Z,0.00
2019-04-26T00:48:40.195Z,0.00
2019-04-26T00:49:43.972Z,0.00
2019-04-26T00:50:45.194Z,0.00
2019-04-26T00:51:40.218Z,0.00
2019-04-26T00:52:40.230Z,0.00
2019-04-26T00:53:40.139Z,0.00
2019-04-26T00:54:40.154Z,0.00
2019-04-26T00:55:40.139Z,0.00
2019-04-26T00:56:40.105Z,0.00
2019-04-26T00:57:40.092Z,0.00
2019-04-26T00:58:40.079Z,0.00
2019-04-26T00:59:40.084Z,0.00
2019-04-26T01:00:40.058Z,0.00
2019-04-26T01:01:45.935Z,0.00
2019-04-26T01:02:40.050Z,0.00
2019-04-26T01:03:40.025Z,0.00
2019-04-26T01:04:40.027Z,0.00
2019-04-26T01:05:40.002Z,0.00
2019-04-26T01:06:39.994Z,0.00
2019-04-26T01:07:39.978Z,0.00
2019-04-26T01:08:39.966Z,0.00
2019-04-26T01:09:39.974Z,0.00
2019-04-26T01:10:39.944Z,0.00
2019-04-26T01:11:39.940Z,0.00
2019-04-26T01:12:44.955Z,0.00
2019-04-26T01:13:39.911Z,0.00
2019-04-26T01:14:39.916Z,0.00
2019-04-26T01:15:39.890Z,0.00
2019-04-26T01:16:39.880Z,0.00
2019-04-26T01:17:39.866Z,0.00
2019-04-26T01:18:39.872Z,0.00
2019-04-26T01:19:39.877Z,0.00
2019-04-26T01:20:39.837Z,0.00
2019-04-26T01:21:39.823Z,0.00
2019-04-26T01:22:39.807Z,0.00
2019-04-26T01:23:44.819Z,0.00
2019-04-26T01:24:39.812Z,0.00
2019-04-26T01:25:39.777Z,0.00
2019-04-26T01:26:39.763Z,0.00
2019-04-26T01:27:39.758Z,0.00
2019-04-26T01:28:39.741Z,0.00
2019-04-26T01:29:39.733Z,0.00
2019-04-26T01:30:39.742Z,0.00
2019-04-26T01:31:39.707Z,0.00
2019-04-26T01:32:39.698Z,0.00
2019-04-26T01:33:39.698Z,0.00
2019-04-26T01:34:44.693Z,0.00
2019-04-26T01:35:39.702Z,0.00
2019-04-26T01:36:39.651Z,0.00
2019-04-26T01:37:39.651Z,0.00
2019-04-26T01:38:39.658Z,0.00
2019-04-26T01:39:39.631Z,0.00
2019-04-26T01:40:39.644Z,0.00
2019-04-26T01:41:39.598Z,0.00
2019-04-26T01:42:39.618Z,0.00
2019-04-26T01:43:39.612Z,0.00
2019-04-26T01:44:39.609Z,0.00
2019-04-26T01:45:44.586Z,0.00
2019-04-26T01:46:39.538Z,0.00
2019-04-26T01:47:39.554Z,0.00
2019-04-26T01:48:39.516Z,0.00
2019-04-26T01:49:39.520Z,0.00
2019-04-26T01:50:39.510Z,0.00
2019-04-26T01:51:39.484Z,0.00
2019-04-26T01:52:39.476Z,0.00
2019-04-26T01:53:39.467Z,0.00
2019-04-26T01:54:39.455Z,0.00
2019-04-26T01:55:39.450Z,0.00
2019-04-26T01:56:44.448Z,0.00
2019-04-26T01:57:39.415Z,0.00
2019-04-26T01:58:39.411Z,0.00
2019-04-26T01:59:39.391Z,0.00
2019-04-26T02:00:39.408Z,0.00
2019-04-26T02:01:39.371Z,0.00
2019-04-26T02:02:39.360Z,0.00
2019-04-26T02:03:39.369Z,0.00
2019-04-26T02:04:39.332Z,0.00
2019-04-26T02:05:39.336Z,0.00
2019-04-26T02:06:39.314Z,0.00
2019-04-26T02:07:44.321Z,0.00
2019-04-26T02:08:39.294Z,0.00
2019-04-26T02:09:39.297Z,0.00
2019-04-26T02:10:39.285Z,0.00
2019-04-26T02:11:39.254Z,0.00
2019-04-26T02:12:39.247Z,0.00
2019-04-26T02:13:39.232Z,0.00
2019-04-26T02:14:39.224Z,0.00
2019-04-26T02:15:39.212Z,0.00
2019-04-26T02:16:39.210Z,0.00
2019-04-26T02:17:39.194Z,0.00
2019-04-26T02:18:44.204Z,0.00
2019-04-26T02:19:39.177Z,0.00
2019-04-26T02:20:39.163Z,0.00
2019-04-26T02:21:39.161Z,0.00
2019-04-26T02:22:39.139Z,0.00
2019-04-26T02:23:39.121Z,0.00
2019-04-26T02:24:39.110Z,0.00
2019-04-26T02:25:39.100Z,0.00
2019-04-26T02:26:39.104Z,0.00
2019-04-26T02:27:39.072Z,0.00
2019-04-26T02:28:39.060Z,0.00
2019-04-26T02:29:44.072Z,0.00
2019-04-26T02:30:39.042Z,0.00
2019-04-26T02:31:39.050Z,0.00
2019-04-26T02:32:39.019Z,0.00
2019-04-26T02:33:39.018Z,0.00
2019-04-26T02:34:38.994Z,0.00
2019-04-26T02:35:39.007Z,0.00
2019-04-26T02:36:56.153Z,0.00
2019-04-26T02:37:39.960Z,0.00
2019-04-26T02:38:38.949Z,0.00
2019-04-26T02:39:38.967Z,0.00
2019-04-26T02:40:44.075Z,0.00
2019-04-26T02:41:38.949Z,0.00
2019-04-26T02:42:38.916Z,0.00
2019-04-26T02:43:38.911Z,0.00
2019-04-26T02:44:38.907Z,0.00
2019-04-26T02:45:38.881Z,0.00
2019-04-26T02:46:38.870Z,0.00
2019-04-26T02:47:39.198Z,0.00
2019-04-26T02:48:38.840Z,0.00
2019-04-26T02:49:38.839Z,0.00
2019-04-26T02:50:38.819Z,0.00
2019-04-26T02:51:43.844Z,0.00
2019-04-26T02:52:39.271Z,0.00
2019-04-26T02:53:38.978Z,0.00
2019-04-26T02:54:38.772Z,0.00
2019-04-26T02:55:42.373Z,0.00
2019-04-26T02:56:40.111Z,0.00
2019-04-26T02:57:38.998Z,0.00
2019-04-26T02:58:39.130Z,0.00
2019-04-26T02:59:40.613Z,0.00
2019-04-26T03:00:39.189Z,0.00
2019-04-26T03:01:40.065Z,0.00
2019-04-26T03:02:43.718Z,0.00
2019-04-26T03:03:39.721Z,0.00
2019-04-26T03:04:39.473Z,0.00
2019-04-26T03:05:39.759Z,0.00
2019-04-26T03:06:40.386Z,0.00
2019-04-26T03:07:39.104Z,0.00
2019-04-26T03:08:39.340Z,0.00
2019-04-26T03:09:38.958Z,0.00
2019-04-26T03:10:40.252Z,0.00
2019-04-26T03:11:39.141Z,0.00
2019-04-26T03:12:39.509Z,0.00
2019-04-26T03:13:43.877Z,0.00
2019-04-26T03:14:39.787Z,0.00
2019-04-26T03:15:38.935Z,0.00
2019-04-26T03:16:39.474Z,0.00
2019-04-26T03:17:39.726Z,0.00
2019-04-26T03:18:39.467Z,0.00
2019-04-26T03:19:39.601Z,0.00
2019-04-26T03:20:40.051Z,0.00
2019-04-26T03:21:39.398Z,0.00
2019-04-26T03:22:39.422Z,0.00
2019-04-26T03:23:56.236Z,0.00
2019-04-26T03:24:44.449Z,0.00
2019-04-26T03:25:40.259Z,0.00
2019-04-26T03:26:39.554Z,0.00
2019-04-26T03:27:39.740Z,0.00
2019-04-26T03:28:40.033Z,0.00
2019-04-26T03:29:39.628Z,0.00
2019-04-26T03:30:47.866Z,0.00
2019-04-26T03:31:49.686Z,0.00
2019-04-26T03:32:49.319Z,0.00
2019-04-26T03:33:48.627Z,0.00
2019-04-26T03:34:48.997Z,0.00
2019-04-26T03:35:55.310Z,0.00
2019-04-26T03:36:41.176Z,0.00
2019-04-26T03:37:40.051Z,0.00
2019-04-26T03:38:39.802Z,0.00
2019-04-26T03:39:40.719Z,0.00
2019-04-26T03:40:40.234Z,0.00
2019-04-26T03:41:39.001Z,0.00
2019-04-26T03:42:38.896Z,0.00
2019-04-26T03:43:39.139Z,0.00
2019-04-26T03:44:39.027Z,0.00
2019-04-26T03:45:38.961Z,0.00
2019-04-26T03:46:45.166Z,0.00
2019-04-26T03:47:40.688Z,0.00
2019-04-26T03:48:39.753Z,0.00
2019-04-26T03:49:40.039Z,0.00
2019-04-26T03:50:39.707Z,0.00
2019-04-26T03:51:39.641Z,0.00
2019-04-26T03:52:40.162Z,0.00
2019-04-26T03:53:39.684Z,0.00
2019-04-26T03:54:39.825Z,0.00
2019-04-26T03:55:39.745Z,0.00
2019-04-26T03:56:39.821Z,0.00
2019-04-26T03:57:44.846Z,0.00
2019-04-26T03:58:39.863Z,4.00
2019-04-26T03:59:38.985Z,4.00
2019-04-26T04:00:39.496Z,0.00
2019-04-26T04:01:39.450Z,0.00
2019-04-26T04:02:39.391Z,4.00
2019-04-26T04:03:40.297Z,4.00
2019-04-26T04:04:39.436Z,4.00
2019-04-26T04:05:39.743Z,4.00
2019-04-26T04:06:56.597Z,4.00
2019-04-26T04:07:43.908Z,8.00
2019-04-26T04:08:45.979Z,12.00
2019-04-26T04:09:39.419Z,12.00
2019-04-26T04:10:39.665Z,12.00
2019-04-26T04:11:40.058Z,16.00
2019-04-26T04:12:39.739Z,16.00
2019-04-26T04:13:38.845Z,16.00
2019-04-26T04:14:40.119Z,16.00
2019-04-26T04:15:38.688Z,16.00
2019-04-26T04:16:39.336Z,16.00
2019-04-26T04:17:39.606Z,20.00
2019-04-26T04:18:38.852Z,24.00
2019-04-26T04:19:43.970Z,28.00
2019-04-26T04:20:38.980Z,36.00
2019-04-26T04:21:39.355Z,40.00
2019-04-26T04:22:39.695Z,36.00
2019-04-26T04:23:39.400Z,32.00
2019-04-26T04:24:39.058Z,32.00
2019-04-26T04:25:39.558Z,36.00
2019-04-26T04:26:39.200Z,32.00
2019-04-26T04:27:38.131Z,36.00
2019-04-26T04:28:38.640Z,36.00
2019-04-26T04:29:44.800Z,40.00
2019-04-26T04:30:45.438Z,44.00
2019-04-26T04:31:38.347Z,44.00
2019-04-26T04:32:39.609Z,48.00
2019-04-26T04:33:37.671Z,52.00
2019-04-26T04:34:37.670Z,60.00
2019-04-26T04:35:37.623Z,60.00
2019-04-26T04:36:37.621Z,60.00
2019-04-26T04:37:56.361Z,64.00
2019-04-26T04:38:38.632Z,68.00
2019-04-26T04:39:37.613Z,72.00
2019-04-26T04:40:37.569Z,68.00
2019-04-26T04:41:42.982Z,72.00
2019-04-26T04:42:37.642Z,88.00
2019-04-26T04:43:37.539Z,100.00
2019-04-26T04:44:37.549Z,104.00
2019-04-26T04:45:37.564Z,116.00
2019-04-26T04:46:37.500Z,112.00
2019-04-26T04:47:37.494Z,108.00
2019-04-26T04:48:37.482Z,116.00
2019-04-26T04:49:37.487Z,132.00
2019-04-26T04:50:37.484Z,124.00
2019-04-26T04:51:37.445Z,136.00
2019-04-26T04:52:43.220Z,128.00
2019-04-26T04:53:37.419Z,128.00
2019-04-26T04:54:37.427Z,124.00
2019-04-26T04:55:37.407Z,116.00
2019-04-26T04:56:37.404Z,104.00
2019-04-26T04:57:37.411Z,104.00
2019-04-26T04:58:37.381Z,128.00
2019-04-26T04:59:37.375Z,140.00
2019-04-26T05:00:37.341Z,156.00
2019-04-26T05:01:37.330Z,180.00
2019-04-26T05:02:37.369Z,204.00
2019-04-26T05:03:43.450Z,228.00
2019-04-26T05:04:37.303Z,260.00
2019-04-26T05:05:37.348Z,264.00
2019-04-26T05:06:37.269Z,256.00
2019-04-26T05:07:37.260Z,252.00
2019-04-26T05:08:37.247Z,252.00
2019-04-26T05:09:37.242Z,248.00
2019-04-26T05:10:37.235Z,256.00
2019-04-26T05:11:37.213Z,272.00
2019-04-26T05:12:37.216Z,284.00
2019-04-26T05:13:37.193Z,296.00
2019-04-26T05:14:42.202Z,296.00
2019-04-26T05:15:37.177Z,280.00
2019-04-26T05:16:37.156Z,268.00
2019-04-26T05:17:37.148Z,256.00
2019-04-26T05:18:37.132Z,256.00
2019-04-26T05:19:37.143Z,252.00
2019-04-26T05:20:37.119Z,264.00
2019-04-26T05:21:37.098Z,264.00
2019-04-26T05:22:37.087Z,260.00
2019-04-26T05:23:37.081Z,244.00
2019-04-26T05:24:37.067Z,248.00
2019-04-26T05:25:42.096Z,256.00
2019-04-26T05:26:37.042Z,256.00
2019-04-26T05:27:37.030Z,268.00
2019-04-26T05:28:37.025Z,284.00
2019-04-26T05:29:37.010Z,312.00
2019-04-26T05:30:37.006Z,344.00
2019-04-26T05:31:36.989Z,336.00
2019-04-26T05:32:36.975Z,364.00
2019-04-26T05:33:36.961Z,396.00
2019-04-26T05:34:36.953Z,424.00
2019-04-26T05:35:36.956Z,464.00
2019-04-26T05:36:41.998Z,508.00
2019-04-26T05:37:37.234Z,528.00
2019-04-26T05:38:36.906Z,568.00
2019-04-26T05:39:36.892Z,596.00
2019-04-26T05:40:36.896Z,612.00
2019-04-26T05:41:36.879Z,636.00
2019-04-26T05:42:36.872Z,660.00
2019-04-26T05:43:36.846Z,688.00
2019-04-26T05:44:36.835Z,716.00
2019-04-26T05:45:36.838Z,760.00
2019-04-26T05:46:36.817Z,796.00
2019-04-26T05:47:41.845Z,800.00
2019-04-26T05:48:36.790Z,772.00
2019-04-26T05:49:36.778Z,724.00
2019-04-26T05:50:36.775Z,680.00
2019-04-26T05:51:36.759Z,672.00
2019-04-26T05:52:36.751Z,672.00
2019-04-26T05:53:36.768Z,692.00
2019-04-26T05:54:36.748Z,736.00
2019-04-26T05:55:36.726Z,788.00
2019-04-26T05:56:36.701Z,820.00
2019-04-26T05:57:36.691Z,856.00
2019-04-26T05:58:41.726Z,888.00
2019-04-26T05:59:36.674Z,948.00
2019-04-26T06:00:36.652Z,944.00
2019-04-26T06:01:36.709Z,920.00
2019-04-26T06:02:36.655Z,912.00
2019-04-26T06:03:36.624Z,972.00
2019-04-26T06:04:36.633Z,1004.00
2019-04-26T06:05:36.609Z,972.00
2019-04-26T06:06:36.593Z,912.00
2019-04-26T06:07:36.573Z,864.00
2019-04-26T06:08:36.564Z,896.00
2019-04-26T06:09:41.592Z,956.00
2019-04-26T06:10:36.541Z,1000.00
2019-04-26T06:11:36.542Z,996.00
2019-04-26T06:12:36.594Z,992.00
2019-04-26T06:13:36.564Z,1040.00
2019-04-26T06:14:36.528Z,1096.00
2019-04-26T06:15:36.497Z,1152.00
2019-04-26T06:16:36.493Z,1184.00
2019-04-26T06:17:36.467Z,1240.00
2019-04-26T06:18:36.450Z,1304.00
2019-04-26T06:19:36.440Z,1408.00
2019-04-26T06:20:41.464Z,1476.00
2019-04-26T06:21:36.439Z,1548.00
2019-04-26T06:22:36.421Z,1664.00
2019-04-26T06:23:36.392Z,1876.00
2019-04-26T06:24:36.378Z,2116.00
2019-04-26T06:25:36.367Z,2212.00
2019-04-26T06:26:36.363Z,2136.00
2019-04-26T06:27:36.356Z,2008.00
2019-04-26T06:28:36.341Z,1824.00
2019-04-26T06:29:36.324Z,1664.00
2019-04-26T06:30:45.212Z,1552.00
2019-04-26T06:31:42.356Z,1492.00
2019-04-26T06:32:36.330Z,1468.00
2019-04-26T06:33:36.281Z,1452.00
2019-04-26T06:34:36.273Z,1456.00
2019-04-26T06:35:36.255Z,1480.00
2019-04-26T06:36:36.246Z,1504.00
2019-04-26T06:37:36.250Z,1488.00
2019-04-26T06:38:43.655Z,1448.00
2019-04-26T06:39:37.232Z,1408.00
2019-04-26T06:40:41.780Z,1404.00
2019-04-26T06:41:37.185Z,1436.00
2019-04-26T06:42:41.207Z,1484.00
2019-04-26T06:43:36.170Z,1524.00
2019-04-26T06:44:36.157Z,1492.00
2019-04-26T06:45:36.142Z,1428.00
2019-04-26T06:46:36.132Z,1372.00
2019-04-26T06:47:36.130Z,1408.00
2019-04-26T06:48:36.107Z,1480.00
2019-04-26T06:49:36.101Z,1584.00
2019-04-26T06:50:36.086Z,1604.00
2019-04-26T06:51:36.080Z,1592.00
2019-04-26T06:52:36.092Z,1568.00
2019-04-26T06:53:41.074Z,1544.00
2019-04-26T06:54:36.085Z,1604.00
2019-04-26T06:55:36.049Z,1804.00
2019-04-26T06:56:36.016Z,1972.00
2019-04-26T06:57:36.015Z,2000.00
2019-04-26T06:58:35.995Z,2068.00
2019-04-26T06:59:36.834Z,2188.00
2019-04-26T07:00:35.979Z,2244.00
2019-04-26T07:01:35.965Z,2240.00
2019-04-26T07:02:35.959Z,2280.00
2019-04-26T07:03:35.991Z,2288.00
2019-04-26T07:04:40.948Z,2216.00
2019-04-26T07:05:35.947Z,2044.00
2019-04-26T07:06:35.915Z,1852.00
2019-04-26T07:07:35.903Z,1720.00
2019-04-26T07:08:35.882Z,1664.00
2019-04-26T07:09:35.874Z,1604.00
2019-04-26T07:10:35.862Z,1660.00
2019-04-26T07:11:35.850Z,1792.00
2019-04-26T07:12:35.859Z,1944.00
2019-04-26T07:13:35.831Z,2076.00
2019-04-26T07:14:35.827Z,2224.00
2019-04-26T07:15:40.840Z,2392.00
2019-04-26T07:16:35.796Z,2568.00
2019-04-26T07:17:35.778Z,2600.00
2019-04-26T07:18:35.786Z,2488.00
2019-04-26T07:19:35.759Z,2364.00
2019-04-26T07:20:35.754Z,2144.00
2019-04-26T07:21:35.732Z,2052.00
2019-04-26T07:22:35.929Z,2000.00
2019-04-26T07:23:35.725Z,2004.00
2019-04-26T07:24:35.705Z,1964.00
2019-04-26T07:25:35.697Z,2008.00
2019-04-26T07:26:40.698Z,2132.00
2019-04-26T07:27:35.677Z,2240.00
2019-04-26T07:28:35.672Z,2336.00
2019-04-26T07:29:35.648Z,2376.00
2019-04-26T07:30:35.705Z,2392.00
2019-04-26T07:31:35.625Z,2256.00
2019-04-26T07:32:35.630Z,2124.00
2019-04-26T07:33:35.608Z,2028.00
2019-04-26T07:34:35.586Z,1996.00
2019-04-26T07:35:35.587Z,1972.00
2019-04-26T07:36:35.564Z,2016.00
2019-04-26T07:37:40.615Z,2024.00
2019-04-26T07:38:35.553Z,2116.00
2019-04-26T07:39:35.549Z,2300.00
2019-04-26T07:40:35.521Z,2692.00
2019-04-26T07:41:35.506Z,2980.00
2019-04-26T07:42:35.512Z,3076.00
2019-04-26T07:43:35.485Z,3008.00
2019-04-26T07:44:35.485Z,2884.00
2019-04-26T07:45:35.462Z,2848.00
2019-04-26T07:46:35.452Z,3020.00
2019-04-26T07:47:35.439Z,2992.00
2019-04-26T07:48:40.463Z,2968.00
2019-04-26T07:49:35.419Z,2904.00
2019-04-26T07:50:35.408Z,2680.00
2019-04-26T07:51:35.396Z,2480.00
2019-04-26T07:52:35.447Z,2428.00
2019-04-26T07:53:35.371Z,2092.00
2019-04-26T07:54:35.370Z,2012.00
2019-04-26T07:55:35.350Z,2244.00
2019-04-26T07:56:35.335Z,2416.00
2019-04-26T07:57:35.324Z,2612.00
2019-04-26T07:58:35.313Z,2752.00
2019-04-26T07:59:40.334Z,2504.00
2019-04-26T08:00:44.646Z,2768.00
2019-04-26T08:01:36.293Z,3048.00
2019-04-26T08:02:35.271Z,3172.00
2019-04-26T08:03:35.258Z,3076.00
2019-04-26T08:04:35.256Z,3328.00
2019-04-26T08:05:35.973Z,3352.00
2019-04-26T08:06:35.224Z,3348.00
2019-04-26T08:07:35.213Z,3288.00
2019-04-26T08:08:35.199Z,3068.00
2019-04-26T08:09:35.209Z,2840.00
2019-04-26T08:10:40.223Z,2672.00
2019-04-26T08:11:35.178Z,2520.00
2019-04-26T08:12:35.161Z,2296.00
2019-04-26T08:13:35.146Z,2128.00
2019-04-26T08:14:35.148Z,1864.00
2019-04-26T08:15:35.122Z,1844.00
2019-04-26T08:16:35.110Z,1828.00
2019-04-26T08:17:35.102Z,1672.00
2019-04-26T08:18:35.107Z,1648.00
2019-04-26T08:19:35.086Z,1680.00
2019-04-26T08:20:35.064Z,1764.00
2019-04-26T08:21:42.484Z,1808.00
2019-04-26T08:22:36.038Z,1884.00
2019-04-26T08:23:41.656Z,1920.00
2019-04-26T08:24:36.027Z,1992.00
2019-04-26T08:25:35.007Z,2028.00
2019-04-26T08:26:34.998Z,2000.00
2019-04-26T08:27:34.985Z,2380.00
2019-04-26T08:28:34.972Z,2392.00
2019-04-26T08:29:34.971Z,3100.00
2019-04-26T08:30:34.950Z,3628.00
2019-04-26T08:31:34.939Z,3992.00
2019-04-26T08:32:39.953Z,4064.00
2019-04-26T08:33:34.915Z,4116.00
2019-04-26T08:34:34.917Z,3688.00
2019-04-26T08:35:34.897Z,3596.00
2019-04-26T08:36:34.882Z,3580.00
2019-04-26T08:37:36.552Z,3724.00
2019-04-26T08:38:34.877Z,3588.00
2019-04-26T08:39:44.996Z,3408.00
2019-04-26T08:40:35.836Z,3308.00
2019-04-26T08:41:35.267Z,3272.00
2019-04-26T08:42:34.813Z,3268.00
2019-04-26T08:43:39.829Z,3176.00
2019-04-26T08:44:35.609Z,3048.00
2019-04-26T08:45:34.780Z,2864.00
2019-04-26T08:46:36.206Z,2760.00
2019-04-26T08:47:34.756Z,2716.00
2019-04-26T08:48:34.748Z,2876.00
2019-04-26T08:49:35.039Z,2928.00
2019-04-26T08:50:34.730Z,3100.00
2019-04-26T08:51:34.712Z,2768.00
2019-04-26T08:52:34.700Z,2988.00
2019-04-26T08:53:34.688Z,2896.00
2019-04-26T08:54:39.719Z,2980.00
2019-04-26T08:55:34.665Z,2568.00
2019-04-26T08:56:34.654Z,2252.00
2019-04-26T08:57:34.655Z,2480.00
2019-04-26T08:58:34.657Z,2356.00
2019-04-26T08:59:34.645Z,1988.00
2019-04-26T09:00:34.618Z,2544.00
2019-04-26T09:01:34.596Z,2696.00
2019-04-26T09:02:34.586Z,2772.00
2019-04-26T09:03:34.575Z,2464.00
2019-04-26T09:04:34.578Z,2516.00
2019-04-26T09:05:39.589Z,2480.00
2019-04-26T09:06:34.548Z,2508.00
2019-04-26T09:07:36.389Z,3208.00
2019-04-26T09:08:34.521Z,3548.00
2019-04-26T09:09:34.529Z,2928.00
2019-04-26T09:10:34.508Z,3220.00
2019-04-26T09:11:35.035Z,2740.00
2019-04-26T09:12:34.495Z,2748.00
2019-04-26T09:13:34.464Z,2848.00
2019-04-26T09:14:34.454Z,3632.00
2019-04-26T09:15:34.446Z,3596.00
2019-04-26T09:16:49.868Z,3512.00
2019-04-26T09:17:35.412Z,3316.00
2019-04-26T09:18:43.120Z,3456.00
2019-04-26T09:19:35.390Z,3620.00
2019-04-26T09:20:34.413Z,3820.00
2019-04-26T09:21:34.369Z,3748.00
2019-04-26T09:22:34.359Z,3628.00
2019-04-26T09:23:40.156Z,3788.00
2019-04-26T09:24:35.336Z,3832.00
2019-04-26T09:25:39.028Z,3796.00
2019-04-26T09:26:35.329Z,3760.00
2019-04-26T09:27:39.332Z,3500.00
2019-04-26T09:28:34.293Z,3464.00
2019-04-26T09:29:34.284Z,3580.00
2019-04-26T09:30:34.824Z,3696.00
2019-04-26T09:31:34.276Z,3884.00
2019-04-26T09:32:34.245Z,4136.00
2019-04-26T09:33:35.998Z,4184.00
2019-04-26T09:34:34.247Z,4036.00
2019-04-26T09:35:34.212Z,3808.00
2019-04-26T09:36:34.210Z,3392.00
2019-04-26T09:37:34.188Z,3216.00
2019-04-26T09:38:39.201Z,3248.00
2019-04-26T09:39:34.165Z,3352.00
2019-04-26T09:40:34.165Z,3512.00
2019-04-26T09:41:34.154Z,3552.00
2019-04-26T09:42:34.131Z,4032.00
2019-04-26T09:43:34.122Z,3940.00
2019-04-26T09:44:34.113Z,3856.00
2019-04-26T09:45:34.098Z,3676.00
2019-04-26T09:46:34.100Z,2924.00
2019-04-26T09:47:34.084Z,2908.00
2019-04-26T09:48:36.657Z,2692.00
2019-04-26T09:49:41.149Z,2760.00
2019-04-26T09:50:34.046Z,2668.00
2019-04-26T09:51:34.856Z,2548.00
2019-04-26T09:52:34.021Z,2500.00
2019-04-26T09:53:34.009Z,2372.00
2019-04-26T09:54:34.003Z,2224.00
2019-04-26T09:55:35.502Z,2160.00
2019-04-26T09:56:33.983Z,1808.00
2019-04-26T09:57:33.962Z,1992.00
2019-04-26T09:58:33.958Z,2324.00
2019-04-26T09:59:36.311Z,2484.00
2019-04-26T10:00:39.952Z,2700.00
2019-04-26T10:01:33.927Z,2840.00
2019-04-26T10:02:35.342Z,3156.00
2019-04-26T10:03:34.398Z,3520.00
2019-04-26T10:04:33.882Z,4012.00
2019-04-26T10:05:33.872Z,4432.00
2019-04-26T10:06:33.871Z,4824.00
2019-04-26T10:07:37.479Z,5220.00
2019-04-26T10:08:33.837Z,5288.00
2019-04-26T10:09:33.827Z,5052.00
2019-04-26T10:10:35.327Z,4820.00
2019-04-26T10:11:39.540Z,4652.00
2019-04-26T10:12:33.804Z,4312.00
2019-04-26T10:13:33.783Z,4652.00
2019-04-26T10:14:33.768Z,5168.00
2019-04-26T10:15:33.757Z,5616.00
2019-04-26T10:16:37.769Z,5408.00
2019-04-26T10:17:34.752Z,5360.00
2019-04-26T10:18:33.728Z,5172.00
2019-04-26T10:19:33.714Z,5140.00
2019-04-26T10:20:33.703Z,5284.00
2019-04-26T10:21:33.690Z,4892.00
2019-04-26T10:22:38.720Z,4540.00
2019-04-26T10:23:33.665Z,4984.00
2019-04-26T10:24:33.655Z,5480.00
2019-04-26T10:25:33.672Z,5908.00
2019-04-26T10:26:33.638Z,4772.00
2019-04-26T10:27:36.450Z,5656.00
2019-04-26T10:28:34.621Z,5704.00
2019-04-26T10:29:33.601Z,4840.00
2019-04-26T10:30:33.591Z,5684.00
2019-04-26T10:31:33.589Z,5992.00
2019-04-26T10:32:33.575Z,6144.00
2019-04-26T10:33:38.576Z,8272.00
2019-04-26T10:34:33.549Z,7956.00
2019-04-26T10:35:33.532Z,7544.00
2019-04-26T10:36:33.524Z,8356.00
2019-04-26T10:37:39.674Z,9388.00
2019-04-26T10:38:34.501Z,6860.00
2019-04-26T10:39:34.520Z,6732.00
2019-04-26T10:40:35.769Z,8032.00
2019-04-26T10:41:33.463Z,7412.00
2019-04-26T10:42:33.462Z,7360.00
2019-04-26T10:43:33.446Z,7256.00
2019-04-26T10:44:39.822Z,5888.00
2019-04-26T10:45:33.416Z,6044.00
2019-04-26T10:46:33.406Z,5112.00
2019-04-26T10:47:34.265Z,3372.00
2019-04-26T10:48:33.390Z,3396.00
2019-04-26T10:49:33.378Z,4640.00
2019-04-26T10:50:34.419Z,4112.00
2019-04-26T10:51:33.350Z,5088.00
2019-04-26T10:52:33.357Z,6240.00
2019-04-26T10:53:33.328Z,6460.00
2019-04-26T10:54:36.900Z,6540.00
2019-04-26T10:55:39.326Z,6700.00
2019-04-26T10:56:33.292Z,6712.00
2019-04-26T10:57:33.290Z,7000.00
2019-04-26T10:58:36.176Z,7160.00
2019-04-26T10:59:33.272Z,7400.00
2019-04-26T11:00:33.249Z,7372.00
2019-04-26T11:01:33.236Z,7524.00
2019-04-26T11:02:33.235Z,7500.00
2019-04-26T11:03:35.034Z,7256.00
2019-04-26T11:04:33.205Z,6864.00
2019-04-26T11:05:33.191Z,6620.00
2019-04-26T11:06:38.203Z,5244.00
2019-04-26T11:07:33.179Z,3764.00
2019-04-26T11:08:33.158Z,2736.00
2019-04-26T11:09:33.146Z,2168.00
2019-04-26T11:10:33.135Z,3056.00
2019-04-26T11:11:33.125Z,4552.00
2019-04-26T11:12:33.132Z,5488.00
2019-04-26T11:13:33.098Z,6032.00
2019-04-26T11:14:33.090Z,6140.00
2019-04-26T11:15:34.091Z,6000.00
2019-04-26T11:16:33.065Z,4844.00
2019-04-26T11:17:38.093Z,4524.00
2019-04-26T11:18:33.043Z,4648.00
2019-04-26T11:19:35.535Z,3556.00
2019-04-26T11:20:33.021Z,2456.00
2019-04-26T11:21:33.008Z,2164.00
2019-04-26T11:22:33.472Z,1852.00
2019-04-26T11:23:32.998Z,2652.00
2019-04-26T11:24:32.977Z,4176.00
2019-04-26T11:25:32.964Z,5412.00
2019-04-26T11:26:34.767Z,6636.00
2019-04-26T11:27:32.941Z,7744.00
2019-04-26T11:28:37.962Z,8792.00
2019-04-26T11:29:32.917Z,9416.00
2019-04-26T11:30:32.966Z,9908.00
2019-04-26T11:31:32.896Z,10668.00
2019-04-26T11:32:33.196Z,12164.00
2019-04-26T11:33:44.233Z,12156.00
2019-04-26T11:34:33.887Z,10060.00
2019-04-26T11:35:34.529Z,8688.00
2019-04-26T11:36:32.839Z,7044.00
2019-04-26T11:37:32.843Z,6572.00
2019-04-26T11:38:33.039Z,8968.00
2019-04-26T11:39:40.514Z,7644.00
2019-04-26T11:40:32.796Z,7172.00
2019-04-26T11:41:34.001Z,6016.00
2019-04-26T11:42:32.771Z,5700.00
2019-04-26T11:43:32.769Z,4952.00
2019-04-26T11:44:32.750Z,4372.00
2019-04-26T11:45:32.751Z,3320.00
2019-04-26T11:46:44.237Z,3436.00
2019-04-26T11:47:37.072Z,2652.00
2019-04-26T11:48:33.712Z,1636.00
2019-04-26T11:49:32.692Z,1444.00
2019-04-26T11:50:37.702Z,1292.00
2019-04-26T11:51:32.680Z,1272.00
2019-04-26T11:52:35.939Z,1916.00
2019-04-26T11:53:33.482Z,2732.00
2019-04-26T11:54:32.638Z,3500.00
2019-04-26T11:55:32.624Z,3592.00
2019-04-26T11:56:33.948Z,4080.00
2019-04-26T11:57:32.601Z,4488.00
2019-04-26T11:58:32.606Z,3760.00
2019-04-26T11:59:32.577Z,3332.00
2019-04-26T12:00:32.571Z,2984.00
2019-04-26T12:01:40.428Z,3036.00
2019-04-26T12:02:32.561Z,2936.00
2019-04-26T12:03:32.542Z,3240.00
2019-04-26T12:04:32.531Z,3152.00
2019-04-26T12:05:32.521Z,3616.00
2019-04-26T12:06:32.498Z,3568.00
2019-04-26T12:07:32.492Z,3376.00
2019-04-26T12:08:32.489Z,2732.00
2019-04-26T12:09:32.467Z,2752.00
2019-04-26T12:10:32.451Z,2908.00
2019-04-26T12:11:35.219Z,3224.00
2019-04-26T12:12:37.459Z,2956.00
2019-04-26T12:13:32.458Z,2836.00
2019-04-26T12:14:33.500Z,2512.00
2019-04-26T12:15:32.412Z,2316.00
2019-04-26T12:16:32.388Z,2156.00
2019-04-26T12:17:35.076Z,1908.00
2019-04-26T12:18:32.421Z,1692.00
2019-04-26T12:19:32.352Z,1940.00
2019-04-26T12:20:32.346Z,2168.00
2019-04-26T12:21:34.060Z,2260.00
2019-04-26T12:22:32.315Z,1740.00
2019-04-26T12:23:37.335Z,1260.00
2019-04-26T12:24:34.445Z,1164.00
2019-04-26T12:25:32.285Z,1416.00
2019-04-26T12:26:42.381Z,1660.00
2019-04-26T12:27:33.384Z,1884.00
2019-04-26T12:28:32.265Z,1800.00
2019-04-26T12:29:32.237Z,1696.00
2019-04-26T12:30:32.224Z,1600.00
2019-04-26T12:31:32.223Z,1600.00
2019-04-26T12:32:32.215Z,1524.00
2019-04-26T12:33:32.201Z,1308.00